This is the latest recevied weather packets stored in our database for station/object FHDOHA-13. If no packets are shown the sender has not sent any weather packets the latest 1 day(s).
| Time | Temp. | Humidity | Pressure | Rain* | Wind** | Luminosity | Snow |
|---|---|---|---|---|---|---|---|
| 1778079671 | 17.22° C | 75% | 1004.1 hPa | 0 mm | - | - | - |
| 1778078771 | 17.22° C | 75% | 1004.1 hPa | 0 mm | - | - | - |
| 1778076071 | 16.67° C | 76% | 1004.1 hPa | 0 mm | - | - | - |
| 1778075171 | 13.89° C | 84% | 1004.4 hPa | 0 mm | - | - | - |
| 1778074271 | 13.89° C | 84% | 1004.4 hPa | 0 mm | - | - | - |
| 1778073371 | 13.89° C | 84% | 1004.4 hPa | 3.05 mm | - | - | - |
| 1778071571 | 13.33° C | 84% | 1004.4 hPa | 8.38 mm | - | - | - |
| 1778068871 | 13.33° C | 84% | 1004.4 hPa | 0.76 mm | - | - | - |
| 1778067071 | 14.44° C | 80% | 1004.3 hPa | 0 mm | - | - | - |
| 1778065271 | 13.89° C | 82% | 1004.4 hPa | 0 mm | - | - | - |
| 1778064371 | 13.89° C | 82% | 1004.4 hPa | 0 mm | - | - | - |
| 1778063471 | 13.89° C | 82% | 1004.4 hPa | 0 mm | - | - | - |
| 1778062571 | 13.89° C | 81% | 1004.4 hPa | 0 mm | - | - | - |
| 1778059871 | 13.89° C | 85% | 1004.4 hPa | 0.25 mm | - | - | - |
| 1778058971 | 13.33° C | 84% | 1004.5 hPa | 0.25 mm | - | - | - |
| 1778058071 | 13.33° C | 84% | 1004.5 hPa | 0.51 mm | - | - | - |
| 1778057171 | 12.78° C | 84% | 1004.5 hPa | 0.51 mm | - | - | - |
| 1778056271 | 11.67° C | 84% | 1004.6 hPa | 0.51 mm | - | - | - |
| 1778055371 | 11.67° C | 84% | 1004.6 hPa | 0.25 mm | - | - | - |
| 1778053571 | 11.67° C | 84% | 1004.6 hPa | 0.25 mm | - | - | - |
| 1778052671 | 11.67° C | 84% | 1004.6 hPa | 0.51 mm | - | - | - |
| 1778050871 | 11.11° C | 84% | 1004.7 hPa | 0.51 mm | - | - | - |
| 1778049971 | 11.11° C | 84% | 1004.7 hPa | 0.51 mm | - | - | - |
| 1778049071 | 11.11° C | 84% | 1004.7 hPa | 0.25 mm | - | - | - |
| 1778046371 | 10.56° C | 84% | 1004.7 hPa | 0 mm | - | - | - |
* Rain latest hour (hover to see other rain measurements)
** Current wind speed in m/s (hover to see current wind gust speed)